createdAt,value
2018-07-12T00:00:07.587Z,7.60
2018-07-12T00:02:48.698Z,7.40
2018-07-12T00:05:29.809Z,5.77
2018-07-12T00:08:11.199Z,6.37
2018-07-12T00:10:52.904Z,6.47
2018-07-12T00:13:34.414Z,5.73
2018-07-12T00:16:15.775Z,5.77
2018-07-12T00:18:57.602Z,6.20
2018-07-12T00:21:39.129Z,5.17
2018-07-12T00:24:20.786Z,4.70
2018-07-12T00:27:02.267Z,5.17
2018-07-12T00:29:43.145Z,5.97
2018-07-12T00:32:24.901Z,6.20
2018-07-12T00:35:06.405Z,5.80
2018-07-12T00:37:47.812Z,5.70
2018-07-12T00:40:29.451Z,5.17
2018-07-12T00:43:10.996Z,5.47
2018-07-12T00:45:52.640Z,5.27
2018-07-12T00:48:35.222Z,5.20
2018-07-12T00:51:16.418Z,5.40
2018-07-12T00:53:57.568Z,4.90
2018-07-12T00:56:39.200Z,5.13
2018-07-12T00:59:20.809Z,6.17
2018-07-12T01:02:02.210Z,4.90
2018-07-12T01:04:43.102Z,4.87
2018-07-12T01:07:24.454Z,5.33
2018-07-12T01:10:05.256Z,5.10
2018-07-12T01:12:47.059Z,5.23
2018-07-12T01:15:28.842Z,4.53
2018-07-12T01:18:10.160Z,4.67
2018-07-12T01:20:50.927Z,4.80
2018-07-12T01:23:32.797Z,4.60
2018-07-12T01:26:14.368Z,4.77
2018-07-12T01:28:55.505Z,4.63
2018-07-12T01:31:37.187Z,4.10
2018-07-12T01:34:18.783Z,4.80
2018-07-12T01:37:00.303Z,4.27
2018-07-12T01:39:41.953Z,4.20
2018-07-12T01:42:23.799Z,4.43
2018-07-12T01:45:05.447Z,4.00
2018-07-12T01:47:47.004Z,3.70
2018-07-12T01:50:28.776Z,4.10
2018-07-12T01:53:10.524Z,4.40
2018-07-12T01:55:52.100Z,4.10
2018-07-12T01:58:33.720Z,4.67
2018-07-12T02:01:15.220Z,4.10
2018-07-12T02:03:56.907Z,4.50
2018-07-12T02:06:37.872Z,4.33
2018-07-12T02:09:19.401Z,3.93
2018-07-12T02:12:00.224Z,4.50
2018-07-12T02:14:41.959Z,3.80
2018-07-12T02:17:23.619Z,3.80
2018-07-12T02:20:05.005Z,3.60
2018-07-12T02:22:45.824Z,3.90
2018-07-12T02:25:27.535Z,3.90
2018-07-12T02:28:09.345Z,3.83
2018-07-12T02:30:50.955Z,3.47
2018-07-12T02:33:32.548Z,4.03
2018-07-12T02:36:14.357Z,4.30
2018-07-12T02:38:55.656Z,3.77
2018-07-12T02:41:37.200Z,4.43
2018-07-12T02:44:18.805Z,3.63
2018-07-12T02:47:00.492Z,3.90
2018-07-12T02:49:41.964Z,4.10
2018-07-12T02:52:23.550Z,3.77
2018-07-12T02:55:04.608Z,4.40
2018-07-12T02:57:47.084Z,4.63
2018-07-12T03:00:28.408Z,4.37
2018-07-12T03:03:10.311Z,4.43
2018-07-12T03:05:52.148Z,4.17
2018-07-12T03:08:33.263Z,4.17
2018-07-12T03:11:14.895Z,4.20
2018-07-12T03:13:56.639Z,3.83
2018-07-12T03:16:38.223Z,4.30
2018-07-12T03:19:19.892Z,4.30
2018-07-12T03:22:01.735Z,4.70
2018-07-12T03:24:43.368Z,4.10
2018-07-12T03:27:24.911Z,4.30
2018-07-12T03:30:06.393Z,4.20
2018-07-12T03:32:47.897Z,4.63
2018-07-12T03:35:29.492Z,5.00
2018-07-12T03:38:10.232Z,4.27
2018-07-12T03:40:51.791Z,4.40
2018-07-12T03:43:32.616Z,4.23
2018-07-12T03:46:14.143Z,4.23
2018-07-12T03:48:54.952Z,4.57
2018-07-12T03:51:36.723Z,3.60
2018-07-12T03:54:18.297Z,4.47
2018-07-12T03:56:59.643Z,4.30
2018-07-12T03:59:41.180Z,4.90
2018-07-12T04:02:22.783Z,5.60
2018-07-12T04:05:04.249Z,5.20
2018-07-12T04:07:45.713Z,5.77
2018-07-12T04:10:27.259Z,4.80
2018-07-12T04:13:08.912Z,4.00
2018-07-12T04:15:50.192Z,12.17
2018-07-12T04:18:32.134Z,10.10
2018-07-12T04:21:13.377Z,12.40
2018-07-12T04:23:54.217Z,13.23
2018-07-12T04:26:35.899Z,8.70
2018-07-12T04:29:17.302Z,12.33
2018-07-12T04:31:58.943Z,8.70
2018-07-12T04:34:40.634Z,8.77
2018-07-12T04:37:22.297Z,6.43
2018-07-12T04:40:03.862Z,5.80
2018-07-12T04:42:45.384Z,10.47
2018-07-12T04:45:26.127Z,11.67
2018-07-12T04:48:07.037Z,11.30
2018-07-12T04:50:48.529Z,12.10
2018-07-12T04:53:29.267Z,15.63
2018-07-12T04:56:10.734Z,18.27
2018-07-12T04:58:52.593Z,7.37
2018-07-12T05:01:33.881Z,5.27
2018-07-12T05:04:15.452Z,18.07
2018-07-12T05:06:57.043Z,19.23
2018-07-12T05:09:38.616Z,16.50
2018-07-12T05:12:19.547Z,8.90
2018-07-12T05:15:01.463Z,19.70
2018-07-12T05:17:42.737Z,25.90
2018-07-12T05:20:23.800Z,27.97
2018-07-12T05:23:05.497Z,26.10
2018-07-12T05:25:47.023Z,27.73
2018-07-12T05:28:28.722Z,23.90
2018-07-12T05:31:10.037Z,25.43
2018-07-12T05:33:51.090Z,24.90
2018-07-12T05:37:04.953Z,18.73
2018-07-12T05:39:48.079Z,12.20
2018-07-12T05:42:30.807Z,11.97
2018-07-12T05:45:13.541Z,9.87
2018-07-12T05:47:56.163Z,10.27
2018-07-12T05:50:39.017Z,8.70
2018-07-12T05:53:22.105Z,10.73
2018-07-12T05:56:05.168Z,14.17
2018-07-12T05:58:48.092Z,9.10
2018-07-12T06:01:41.437Z,8.20
2018-07-12T06:04:24.392Z,8.53
2018-07-12T06:07:07.075Z,10.30
2018-07-12T06:09:50.574Z,9.30
2018-07-12T06:12:32.835Z,7.27
2018-07-12T06:15:15.812Z,7.37
2018-07-12T06:17:58.065Z,6.10
2018-07-12T06:20:40.830Z,6.60
2018-07-12T06:23:23.866Z,4.60
2018-07-12T06:26:06.515Z,4.43
2018-07-12T06:28:49.242Z,7.95
2018-07-12T06:31:32.357Z,5.53
2018-07-12T06:34:15.305Z,5.03
2018-07-12T06:36:57.699Z,4.50
2018-07-12T06:39:40.358Z,4.40
2018-07-12T06:42:22.869Z,4.20
2018-07-12T06:45:06.408Z,4.30
2018-07-12T06:47:49.677Z,4.70
2018-07-12T06:50:32.503Z,3.60
2018-07-12T06:53:15.365Z,4.27
2018-07-12T06:55:58.133Z,4.10
2018-07-12T06:58:41.142Z,4.50
2018-07-12T07:01:24.110Z,4.47
2018-07-12T07:04:06.586Z,4.10
2018-07-12T07:06:49.328Z,4.10
2018-07-12T07:09:31.872Z,3.50
2018-07-12T07:12:15.150Z,3.83
2018-07-12T07:14:57.674Z,4.00
2018-07-12T07:17:40.059Z,4.13
2018-07-12T07:20:22.955Z,4.20
2018-07-12T07:23:05.705Z,4.33
2018-07-12T07:25:48.484Z,4.30
2018-07-12T07:28:31.268Z,3.98
2018-07-12T07:31:14.185Z,3.93
2018-07-12T07:33:56.791Z,4.00
2018-07-12T07:36:39.295Z,4.70
2018-07-12T07:39:22.393Z,4.53
2018-07-12T07:42:06.044Z,3.90
2018-07-12T07:44:48.754Z,4.50
2018-07-12T07:47:32.523Z,4.40
2018-07-12T07:50:16.911Z,4.10
2018-07-12T07:53:02.387Z,4.30
2018-07-12T07:55:44.996Z,4.92
2018-07-12T07:58:28.901Z,4.10
2018-07-12T08:01:13.073Z,4.90
2018-07-12T08:03:56.313Z,4.47
2018-07-12T08:06:39.197Z,4.87
2018-07-12T08:09:21.911Z,4.33
2018-07-12T08:12:04.685Z,4.75
2018-07-12T08:14:47.269Z,4.78
2018-07-12T08:17:30.136Z,4.83
2018-07-12T08:20:13.102Z,5.28
2018-07-12T08:22:55.788Z,5.42
2018-07-12T08:25:38.695Z,5.33
2018-07-12T08:28:25.697Z,5.28
2018-07-12T08:31:08.301Z,5.70
2018-07-12T08:33:50.990Z,5.62
2018-07-12T08:36:34.336Z,5.40
2018-07-12T08:39:17.908Z,5.87
2018-07-12T08:42:01.421Z,5.80
2018-07-12T08:44:44.369Z,5.37
2018-07-12T08:47:27.800Z,6.10
2018-07-12T08:50:11.697Z,5.53
2018-07-12T08:52:54.407Z,5.33
2018-07-12T08:55:37.900Z,5.72
2018-07-12T08:58:20.988Z,5.20
2018-07-12T09:01:04.199Z,4.92
2018-07-12T09:03:48.395Z,5.20
2018-07-12T09:06:31.642Z,4.80
2018-07-12T09:09:14.788Z,5.58
2018-07-12T09:11:58.329Z,4.22
2018-07-12T09:14:42.106Z,4.37
2018-07-12T09:17:25.777Z,3.80
2018-07-12T09:20:10.364Z,3.95
2018-07-12T09:22:53.066Z,4.10
2018-07-12T09:25:39.998Z,4.00
2018-07-12T09:28:22.936Z,4.70
2018-07-12T09:31:05.447Z,3.50
2018-07-12T09:33:49.024Z,4.00
2018-07-12T09:36:38.551Z,4.33
2018-07-12T09:39:22.870Z,3.98
2018-07-12T09:42:06.107Z,4.33
2018-07-12T09:44:50.112Z,3.95
2018-07-12T09:47:33.982Z,5.05
2018-07-12T09:50:17.047Z,4.97
2018-07-12T09:52:59.660Z,4.55
2018-07-12T09:55:44.987Z,4.58
2018-07-12T09:58:30.596Z,4.47
2018-07-12T10:03:22.296Z,4.37
2018-07-12T10:06:11.106Z,4.17
2018-07-12T10:09:00.315Z,4.72
2018-07-12T10:11:50.004Z,4.35
2018-07-12T10:14:37.873Z,4.62
2018-07-12T10:17:26.179Z,5.10
2018-07-12T10:20:09.156Z,5.22
2018-07-12T10:22:53.952Z,4.28
2018-07-12T10:25:37.068Z,5.20
2018-07-12T10:28:20.765Z,5.08
2018-07-12T10:31:04.009Z,5.78
2018-07-12T10:33:46.327Z,5.87
2018-07-12T10:36:29.453Z,4.95
2018-07-12T10:39:12.193Z,5.40
2018-07-12T10:41:54.994Z,5.00
2018-07-12T10:44:37.847Z,4.62
2018-07-12T10:47:21.331Z,5.10
2018-07-12T10:50:04.359Z,4.50
2018-07-12T10:52:47.230Z,4.33
2018-07-12T10:55:30.768Z,4.83
2018-07-12T10:58:13.492Z,5.28
2018-07-12T11:00:56.311Z,4.43
2018-07-12T11:03:39.321Z,5.17
2018-07-12T11:06:21.905Z,5.00
2018-07-12T11:09:04.929Z,4.90
2018-07-12T11:11:47.327Z,4.80
2018-07-12T11:14:30.439Z,4.97
2018-07-12T11:17:13.367Z,4.35
2018-07-12T11:19:56.832Z,4.65
2018-07-12T11:22:39.441Z,5.47
2018-07-12T11:25:22.594Z,4.67
2018-07-12T11:28:05.883Z,4.83
2018-07-12T11:30:49.113Z,5.03
2018-07-12T11:33:39.157Z,4.85
2018-07-12T11:36:22.570Z,4.53
2018-07-12T11:39:06.890Z,4.85
2018-07-12T11:41:50.373Z,4.70
2018-07-12T11:44:33.781Z,4.83
2018-07-12T11:47:15.989Z,4.60
2018-07-12T11:49:59.294Z,4.55
2018-07-12T11:52:42.378Z,4.15
2018-07-12T11:55:25.258Z,4.50
2018-07-12T11:58:08.221Z,4.10
2018-07-12T12:00:50.867Z,4.58
2018-07-12T12:03:34.966Z,4.47
2018-07-12T12:06:18.031Z,3.40
2018-07-12T12:09:00.516Z,3.55
2018-07-12T12:11:43.360Z,4.80
2018-07-12T12:14:26.072Z,4.20
2018-07-12T12:17:09.165Z,3.77
2018-07-12T12:19:51.880Z,4.50
2018-07-12T12:22:35.923Z,4.30
2018-07-12T12:25:18.676Z,4.12
2018-07-12T12:28:01.119Z,3.77
2018-07-12T12:30:43.998Z,4.08
2018-07-12T12:33:26.712Z,4.17
2018-07-12T12:36:09.803Z,4.37
2018-07-12T12:38:52.684Z,4.87
2018-07-12T12:41:35.277Z,4.55
2018-07-12T12:44:18.332Z,4.35
2018-07-12T12:47:00.973Z,4.67
2018-07-12T12:49:43.570Z,4.15
2018-07-12T12:52:26.647Z,4.92
2018-07-12T12:55:09.459Z,4.37
2018-07-12T12:57:52.316Z,4.08
2018-07-12T13:00:35.006Z,3.72
2018-07-12T13:03:17.973Z,4.92
2018-07-12T13:06:00.989Z,4.97
2018-07-12T13:08:44.410Z,4.50
2018-07-12T13:11:27.493Z,4.53
2018-07-12T13:14:10.427Z,4.10
2018-07-12T13:16:53.496Z,4.90
2018-07-12T13:19:36.144Z,4.20
2018-07-12T13:22:19.205Z,4.20
2018-07-12T13:25:01.960Z,4.03
2018-07-12T13:27:44.737Z,4.40
2018-07-12T13:30:27.320Z,4.90
2018-07-12T13:33:10.076Z,4.28
2018-07-12T13:35:52.837Z,4.12
2018-07-12T13:38:35.493Z,3.90
2018-07-12T13:41:18.536Z,4.17
2018-07-12T13:44:11.942Z,4.15
2018-07-12T13:46:55.982Z,4.58
2018-07-12T13:49:38.982Z,4.08
2018-07-12T13:52:21.545Z,3.87
2018-07-12T13:55:04.738Z,4.08
2018-07-12T13:57:47.774Z,4.03
2018-07-12T14:00:30.920Z,5.20
2018-07-12T14:03:14.331Z,3.85
2018-07-12T14:05:56.996Z,3.80
2018-07-12T14:08:40.181Z,4.83
2018-07-12T14:11:22.816Z,4.28
2018-07-12T14:14:05.996Z,4.12
2018-07-12T14:16:49.187Z,3.87
2018-07-12T14:19:32.574Z,4.50
2018-07-12T14:22:15.680Z,3.25
2018-07-12T14:24:58.338Z,4.30
2018-07-12T14:27:40.688Z,4.37
2018-07-12T14:30:23.785Z,4.40
2018-07-12T14:33:06.654Z,3.85
2018-07-12T14:35:49.081Z,4.58
2018-07-12T14:38:32.240Z,3.90
2018-07-12T14:41:15.189Z,3.83
2018-07-12T14:43:57.858Z,4.53
2018-07-12T14:46:40.751Z,4.35
2018-07-12T14:49:23.066Z,3.90
2018-07-12T14:52:05.768Z,4.40
2018-07-12T14:54:48.657Z,4.75
2018-07-12T14:57:31.274Z,3.75
2018-07-12T15:00:14.265Z,3.75
2018-07-12T15:02:57.028Z,4.58
2018-07-12T15:05:39.794Z,3.90
2018-07-12T15:08:23.029Z,4.25
2018-07-12T15:11:06.801Z,3.80
2018-07-12T15:13:49.964Z,3.65
2018-07-12T15:16:32.759Z,3.65
2018-07-12T15:19:15.975Z,5.05
2018-07-12T15:21:58.672Z,4.87
2018-07-12T15:24:41.383Z,4.05
2018-07-12T15:27:24.141Z,4.50
2018-07-12T15:30:07.505Z,4.03
2018-07-12T15:32:51.656Z,3.60
2018-07-12T15:35:34.896Z,4.05
2018-07-12T15:38:17.299Z,3.95
2018-07-12T15:40:59.759Z,4.05
2018-07-12T15:43:42.386Z,4.15
2018-07-12T15:46:25.169Z,4.40
2018-07-12T15:49:08.028Z,3.87
2018-07-12T15:51:51.189Z,4.53
2018-07-12T15:54:33.813Z,4.33
2018-07-12T15:57:16.392Z,4.80
2018-07-12T15:59:59.203Z,3.60
2018-07-12T16:02:42.062Z,4.03
2018-07-12T16:05:24.571Z,4.15
2018-07-12T16:08:07.275Z,4.53
2018-07-12T16:10:50.159Z,5.37
2018-07-12T16:13:33.057Z,4.40
2018-07-12T16:16:15.824Z,4.87
2018-07-12T16:18:58.533Z,4.15
2018-07-12T16:21:41.495Z,5.10
2018-07-12T16:24:24.348Z,4.17
2018-07-12T16:27:07.001Z,4.42
2018-07-12T16:29:49.776Z,5.15
2018-07-12T16:32:32.303Z,4.45
2018-07-12T16:35:15.331Z,4.40
2018-07-12T16:37:58.272Z,4.95
2018-07-12T16:40:41.008Z,4.50
2018-07-12T16:43:24.072Z,4.17
2018-07-12T16:46:06.791Z,4.30
2018-07-12T16:48:49.678Z,5.10
2018-07-12T16:52:35.104Z,4.80
2018-07-12T16:55:17.687Z,4.43
2018-07-12T16:58:00.252Z,4.65
2018-07-12T17:00:43.029Z,4.77
2018-07-12T17:04:28.624Z,4.43
2018-07-12T17:07:10.943Z,4.40
2018-07-12T17:09:53.802Z,4.43
2018-07-12T17:12:36.721Z,4.72
2018-07-12T17:15:19.576Z,4.78
2018-07-12T17:18:02.066Z,4.37
2018-07-12T17:20:44.719Z,4.45
2018-07-12T17:23:27.412Z,3.97
2018-07-12T17:26:10.396Z,4.55
2018-07-12T17:28:53.138Z,4.05
2018-07-12T17:31:35.953Z,3.90
2018-07-12T17:34:18.965Z,4.50
2018-07-12T17:37:01.204Z,3.87
2018-07-12T17:39:44.099Z,3.90
2018-07-12T17:42:26.887Z,4.40
2018-07-12T17:45:09.259Z,4.50
2018-07-12T17:47:52.079Z,4.73
2018-07-12T17:50:34.598Z,4.70
2018-07-12T17:53:17.718Z,5.37
2018-07-12T17:56:00.421Z,4.63
2018-07-12T17:58:43.237Z,5.37
2018-07-12T18:01:26.240Z,4.90
2018-07-12T18:04:09.140Z,4.90
2018-07-12T18:06:51.644Z,5.00
2018-07-12T18:09:33.934Z,5.50
2018-07-12T18:12:16.723Z,4.80
2018-07-12T18:14:59.276Z,5.40
2018-07-12T18:17:42.252Z,4.63
2018-07-12T18:20:25.050Z,4.77
2018-07-12T18:23:09.282Z,4.53
2018-07-12T18:25:51.848Z,4.90
2018-07-12T18:28:34.324Z,6.40
2018-07-12T18:31:17.281Z,5.27
2018-07-12T18:34:00.458Z,4.80
2018-07-12T18:36:43.189Z,5.17
2018-07-12T18:39:26.103Z,4.60
2018-07-12T18:42:08.568Z,4.80
2018-07-12T18:44:51.333Z,4.70
2018-07-12T18:47:34.274Z,5.10
2018-07-12T18:50:17.072Z,4.83
2018-07-12T18:52:59.727Z,4.73
2018-07-12T18:55:42.582Z,5.20
2018-07-12T18:58:25.375Z,5.03
2018-07-12T19:01:08.261Z,4.80
2018-07-12T19:03:51.088Z,4.70
2018-07-12T19:06:34.286Z,4.50
2018-07-12T19:09:17.393Z,5.10
2018-07-12T19:12:00.924Z,4.37
2018-07-12T19:14:43.588Z,4.47
2018-07-12T19:17:26.221Z,4.03
2018-07-12T19:20:08.694Z,4.57
2018-07-12T19:22:51.593Z,4.50
2018-07-12T19:25:34.290Z,4.70
2018-07-12T19:28:16.892Z,5.40
2018-07-12T19:30:59.971Z,5.00
2018-07-12T19:33:42.493Z,5.10
2018-07-12T19:36:25.218Z,5.07
2018-07-12T19:39:09.129Z,5.20
2018-07-12T19:41:52.037Z,5.10
2018-07-12T19:44:34.812Z,4.80
2018-07-12T19:47:17.271Z,4.70
2018-07-12T19:49:59.992Z,5.23
2018-07-12T19:52:42.925Z,5.30
2018-07-12T19:55:26.729Z,4.77
2018-07-12T19:58:11.623Z,5.30
2018-07-12T20:00:57.469Z,4.53
2018-07-12T20:03:40.795Z,5.10
2018-07-12T20:06:26.074Z,5.10
2018-07-12T20:09:09.839Z,4.67
2018-07-12T20:11:52.688Z,5.60
2018-07-12T20:14:35.455Z,6.17
2018-07-12T20:17:18.412Z,5.10
2018-07-12T20:20:01.819Z,5.00
2018-07-12T20:22:44.721Z,5.30
2018-07-12T20:25:28.172Z,6.00
2018-07-12T20:28:11.173Z,4.40
2018-07-12T20:30:56.444Z,4.97
2018-07-12T20:33:39.536Z,5.57
2018-07-12T20:36:22.985Z,5.13
2018-07-12T20:39:07.195Z,5.40
2018-07-12T20:41:51.140Z,4.80
2018-07-12T20:44:33.784Z,5.60
2018-07-12T20:47:16.313Z,5.40
2018-07-12T20:50:00.730Z,5.77
2018-07-12T20:52:43.666Z,5.63
2018-07-12T20:55:26.031Z,6.17
2018-07-12T20:58:08.604Z,5.80
2018-07-12T21:00:51.433Z,5.37
2018-07-12T21:03:34.176Z,5.43
2018-07-12T21:06:16.823Z,5.13
2018-07-12T21:08:59.789Z,5.70
2018-07-12T21:11:42.597Z,5.57
2018-07-12T21:14:25.339Z,5.70
2018-07-12T21:17:08.278Z,6.70
2018-07-12T21:19:50.929Z,5.53
2018-07-12T21:22:33.806Z,5.80
2018-07-12T21:25:16.884Z,4.70
2018-07-12T21:27:59.559Z,5.80
2018-07-12T21:30:42.480Z,5.07
2018-07-12T21:33:25.510Z,5.20
2018-07-12T21:36:08.181Z,5.70
2018-07-12T21:38:50.723Z,5.33
2018-07-12T21:41:33.607Z,5.90
2018-07-12T21:44:15.722Z,5.70
2018-07-12T21:46:57.979Z,5.70
2018-07-12T21:49:40.555Z,5.70
2018-07-12T21:52:23.870Z,5.40
2018-07-12T21:55:07.759Z,5.77
2018-07-12T21:57:50.133Z,4.83
2018-07-12T22:00:33.754Z,5.30
2018-07-12T22:03:16.817Z,4.97
2018-07-12T22:05:59.903Z,5.50
2018-07-12T22:08:42.259Z,5.57
2018-07-12T22:11:25.470Z,5.53
2018-07-12T22:14:07.725Z,5.97
2018-07-12T22:16:50.852Z,5.70
2018-07-12T22:19:33.548Z,4.83
2018-07-12T22:22:16.267Z,5.70
2018-07-12T22:24:59.068Z,5.00
2018-07-12T22:27:41.682Z,5.40
2018-07-12T22:30:24.616Z,5.30
2018-07-12T22:33:07.704Z,5.03
2018-07-12T22:35:50.371Z,5.23
2018-07-12T22:38:33.408Z,4.80
2018-07-12T22:41:16.330Z,4.90
2018-07-12T22:43:58.984Z,4.80
2018-07-12T22:46:42.006Z,5.10
2018-07-12T22:49:24.739Z,5.10
2018-07-12T22:52:07.600Z,5.57
2018-07-12T22:54:51.274Z,5.10
2018-07-12T22:57:34.133Z,4.57
2018-07-12T23:00:17.125Z,4.10
2018-07-12T23:02:59.774Z,4.20
2018-07-12T23:05:42.722Z,4.27
2018-07-12T23:08:25.378Z,4.50
2018-07-12T23:11:08.125Z,4.40
2018-07-12T23:13:50.772Z,4.50
2018-07-12T23:16:33.426Z,5.20
2018-07-12T23:19:17.233Z,4.70
2018-07-12T23:22:00.015Z,4.90
2018-07-12T23:24:43.007Z,4.60
2018-07-12T23:27:25.071Z,4.20
2018-07-12T23:30:07.316Z,3.90
2018-07-12T23:32:50.095Z,4.67
2018-07-12T23:35:32.757Z,4.40
2018-07-12T23:38:15.567Z,4.33
2018-07-12T23:40:58.549Z,4.30
2018-07-12T23:43:41.423Z,3.73
2018-07-12T23:46:24.082Z,4.10
2018-07-12T23:49:06.971Z,4.23
2018-07-12T23:51:49.422Z,3.60
2018-07-12T23:54:32.615Z,3.80
2018-07-12T23:57:15.243Z,3.90
2018-07-12T23:59:58.069Z,3.33
